sensor_id;sensor_type;location;lat;lon;timestamp;pressure;altitude;pressure_sealevel;temperature;humidity
550;BME280;20066;48.764;9.176;2022-10-01T00:02:08;97913.31;;;11.95;70.44
550;BME280;20066;48.764;9.176;2022-10-01T00:04:36;97924.03;;;11.99;70.43
550;BME280;20066;48.764;9.176;2022-10-01T00:07:05;97923.25;;;12.02;69.48
550;BME280;20066;48.764;9.176;2022-10-01T00:09:36;97939.28;;;12.16;68.64
550;BME280;20066;48.764;9.176;2022-10-01T00:12:04;97946.06;;;11.90;69.59
550;BME280;20066;48.764;9.176;2022-10-01T00:14:31;97924.94;;;12.26;69.53
550;BME280;20066;48.764;9.176;2022-10-01T00:17:00;97915.19;;;12.40;68.72
550;BME280;20066;48.764;9.176;2022-10-01T00:19:28;97926.06;;;12.29;68.90
550;BME280;20066;48.764;9.176;2022-10-01T00:21:56;97916.97;;;12.16;69.12
550;BME280;20066;48.764;9.176;2022-10-01T00:24:24;97920.31;;;11.86;71.00
550;BME280;20066;48.764;9.176;2022-10-01T00:26:52;97921.91;;;12.21;70.29
550;BME280;20066;48.764;9.176;2022-10-01T00:29:19;97916.13;;;12.22;69.58
550;BME280;20066;48.764;9.176;2022-10-01T00:31:47;97927.34;;;12.17;70.76
550;BME280;20066;48.764;9.176;2022-10-01T00:34:16;97925.88;;;12.09;70.55
550;BME280;20066;48.764;9.176;2022-10-01T00:36:44;97923.19;;;11.65;72.04
550;BME280;20066;48.764;9.176;2022-10-01T00:39:12;97902.56;;;11.37;74.28
550;BME280;20066;48.764;9.176;2022-10-01T00:41:40;97906.09;;;11.27;75.78
550;BME280;20066;48.764;9.176;2022-10-01T00:44:29;97909.31;;;11.66;73.58
550;BME280;20066;48.764;9.176;2022-10-01T00:47:03;97907.72;;;11.72;73.47
550;BME280;20066;48.764;9.176;2022-10-01T00:49:35;97920.88;;;11.63;74.28
550;BME280;20066;48.764;9.176;2022-10-01T00:52:07;97916.19;;;12.15;71.24
550;BME280;20066;48.764;9.176;2022-10-01T00:54:38;97931.16;;;11.75;73.47
550;BME280;20066;48.764;9.176;2022-10-01T00:57:10;97934.94;;;11.88;71.72
550;BME280;20066;48.764;9.176;2022-10-01T00:59:39;97935.13;;;11.64;72.87
550;BME280;20066;48.764;9.176;2022-10-01T01:02:07;97930.09;;;11.58;72.20
550;BME280;20066;48.764;9.176;2022-10-01T01:04:38;97931.19;;;12.20;69.78
550;BME280;20066;48.764;9.176;2022-10-01T01:07:07;97929.47;;;11.95;69.20
550;BME280;20066;48.764;9.176;2022-10-01T01:09:39;97922.94;;;12.34;68.56
550;BME280;20066;48.764;9.176;2022-10-01T01:12:17;97925.44;;;12.14;69.47
550;BME280;20066;48.764;9.176;2022-10-01T01:14:56;97919.00;;;12.05;69.27
550;BME280;20066;48.764;9.176;2022-10-01T01:17:33;97928.28;;;12.00;70.15
550;BME280;20066;48.764;9.176;2022-10-01T01:20:16;97923.00;;;11.89;69.60
550;BME280;20066;48.764;9.176;2022-10-01T01:22:58;97916.78;;;11.37;72.40
550;BME280;20066;48.764;9.176;2022-10-01T01:25:37;97918.38;;;11.31;72.34
550;BME280;20066;48.764;9.176;2022-10-01T01:28:12;97916.50;;;11.25;71.87
550;BME280;20066;48.764;9.176;2022-10-01T01:30:48;97909.63;;;11.16;72.06
550;BME280;20066;48.764;9.176;2022-10-01T01:33:19;97913.91;;;11.07;74.36
550;BME280;20066;48.764;9.176;2022-10-01T01:35:50;97912.22;;;11.34;71.69
550;BME280;20066;48.764;9.176;2022-10-01T01:38:23;97895.06;;;11.07;73.01
550;BME280;20066;48.764;9.176;2022-10-01T01:40:54;97886.00;;;10.79;74.54
550;BME280;20066;48.764;9.176;2022-10-01T01:43:28;97878.09;;;11.17;73.30
550;BME280;20066;48.764;9.176;2022-10-01T01:45:59;97874.16;;;11.29;72.13
550;BME280;20066;48.764;9.176;2022-10-01T01:48:28;97869.97;;;11.24;71.10
550;BME280;20066;48.764;9.176;2022-10-01T01:51:00;97869.47;;;10.74;73.65
550;BME280;20066;48.764;9.176;2022-10-01T01:53:29;97871.56;;;11.18;72.19
550;BME280;20066;48.764;9.176;2022-10-01T01:55:57;97857.44;;;11.00;73.20
550;BME280;20066;48.764;9.176;2022-10-01T01:58:27;97859.28;;;11.61;70.25
550;BME280;20066;48.764;9.176;2022-10-01T02:00:57;97859.25;;;11.17;72.30
550;BME280;20066;48.764;9.176;2022-10-01T02:03:25;97850.94;;;10.94;73.26
550;BME280;20066;48.764;9.176;2022-10-01T02:06:03;97845.16;;;11.95;69.47
550;BME280;20066;48.764;9.176;2022-10-01T02:08:37;97850.50;;;10.99;71.99
550;BME280;20066;48.764;9.176;2022-10-01T02:11:17;97845.41;;;11.67;69.14
550;BME280;20066;48.764;9.176;2022-10-01T02:13:59;97845.94;;;10.92;72.73
550;BME280;20066;48.764;9.176;2022-10-01T02:16:33;97843.53;;;11.12;71.91
550;BME280;20066;48.764;9.176;2022-10-01T02:19:07;97837.63;;;10.72;72.48
550;BME280;20066;48.764;9.176;2022-10-01T02:21:39;97848.56;;;11.58;69.77
550;BME280;20066;48.764;9.176;2022-10-01T02:24:13;97844.47;;;11.36;69.51
550;BME280;20066;48.764;9.176;2022-10-01T02:26:46;97838.81;;;11.23;70.75
550;BME280;20066;48.764;9.176;2022-10-01T02:29:18;97835.22;;;10.89;71.30
550;BME280;20066;48.764;9.176;2022-10-01T02:31:48;97836.78;;;10.82;71.92
550;BME280;20066;48.764;9.176;2022-10-01T02:34:22;97829.91;;;10.74;73.04
550;BME280;20066;48.764;9.176;2022-10-01T02:36:52;97836.88;;;10.65;72.64
550;BME280;20066;48.764;9.176;2022-10-01T02:39:22;97840.69;;;10.67;72.17
550;BME280;20066;48.764;9.176;2022-10-01T02:41:54;97841.25;;;11.07;71.58
550;BME280;20066;48.764;9.176;2022-10-01T02:44:27;97838.38;;;10.73;71.34
550;BME280;20066;48.764;9.176;2022-10-01T02:47:01;97841.88;;;11.25;70.65
550;BME280;20066;48.764;9.176;2022-10-01T02:49:30;97837.91;;;11.40;69.54
550;BME280;20066;48.764;9.176;2022-10-01T02:52:01;97832.75;;;11.12;70.00
550;BME280;20066;48.764;9.176;2022-10-01T02:54:36;97823.88;;;11.18;70.09
550;BME280;20066;48.764;9.176;2022-10-01T02:57:06;97827.72;;;11.17;70.26
550;BME280;20066;48.764;9.176;2022-10-01T02:59:51;97821.94;;;11.15;69.27
550;BME280;20066;48.764;9.176;2022-10-01T03:02:20;97824.28;;;11.13;70.26
550;BME280;20066;48.764;9.176;2022-10-01T03:04:48;97833.38;;;11.34;69.54
550;BME280;20066;48.764;9.176;2022-10-01T03:07:15;97831.78;;;11.36;68.80
550;BME280;20066;48.764;9.176;2022-10-01T03:09:44;97826.78;;;11.38;68.89
550;BME280;20066;48.764;9.176;2022-10-01T03:12:11;97814.28;;;11.58;67.57
550;BME280;20066;48.764;9.176;2022-10-01T03:14:39;97813.16;;;11.08;69.52
550;BME280;20066;48.764;9.176;2022-10-01T03:17:09;97818.75;;;11.35;69.66
550;BME280;20066;48.764;9.176;2022-10-01T03:19:36;97819.38;;;11.94;66.13
550;BME280;20066;48.764;9.176;2022-10-01T03:22:04;97828.88;;;12.40;64.92
550;BME280;20066;48.764;9.176;2022-10-01T03:24:32;97817.16;;;11.82;65.89
550;BME280;20066;48.764;9.176;2022-10-01T03:27:00;97814.81;;;12.21;65.48
550;BME280;20066;48.764;9.176;2022-10-01T03:29:28;97810.09;;;12.29;65.19
550;BME280;20066;48.764;9.176;2022-10-01T03:31:55;97810.44;;;12.01;65.91
550;BME280;20066;48.764;9.176;2022-10-01T03:34:24;97812.88;;;12.56;63.32
550;BME280;20066;48.764;9.176;2022-10-01T03:36:52;97808.28;;;12.53;63.63
550;BME280;20066;48.764;9.176;2022-10-01T03:39:20;97812.47;;;12.57;63.50
550;BME280;20066;48.764;9.176;2022-10-01T03:41:47;97823.56;;;12.63;62.94
550;BME280;20066;48.764;9.176;2022-10-01T03:44:15;97813.81;;;12.42;63.73
550;BME280;20066;48.764;9.176;2022-10-01T03:46:43;97800.88;;;11.51;66.75
550;BME280;20066;48.764;9.176;2022-10-01T03:49:10;97794.53;;;11.28;68.75
550;BME280;20066;48.764;9.176;2022-10-01T03:51:39;97786.97;;;11.97;66.25
550;BME280;20066;48.764;9.176;2022-10-01T03:54:07;97789.97;;;11.69;66.92
550;BME280;20066;48.764;9.176;2022-10-01T03:56:36;97784.34;;;12.28;64.12
550;BME280;20066;48.764;9.176;2022-10-01T03:59:06;97781.09;;;11.72;66.46
550;BME280;20066;48.764;9.176;2022-10-01T04:01:33;97778.94;;;11.94;64.63
550;BME280;20066;48.764;9.176;2022-10-01T04:04:02;97784.00;;;10.37;71.10
550;BME280;20066;48.764;9.176;2022-10-01T04:06:30;97779.63;;;10.64;70.64
550;BME280;20066;48.764;9.176;2022-10-01T04:08:59;97781.00;;;10.90;69.74
550;BME280;20066;48.764;9.176;2022-10-01T04:11:27;97783.59;;;10.38;71.73
550;BME280;20066;48.764;9.176;2022-10-01T04:13:55;97770.22;;;10.21;72.73
550;BME280;20066;48.764;9.176;2022-10-01T04:16:24;97777.84;;;10.36;71.12
550;BME280;20066;48.764;9.176;2022-10-01T04:18:51;97765.22;;;10.92;68.98
550;BME280;20066;48.764;9.176;2022-10-01T04:21:19;97764.88;;;10.87;68.63
550;BME280;20066;48.764;9.176;2022-10-01T04:23:47;97760.91;;;10.43;71.45
550;BME280;20066;48.764;9.176;2022-10-01T04:26:17;97764.66;;;10.60;71.12
550;BME280;20066;48.764;9.176;2022-10-01T04:28:45;97764.22;;;10.72;69.83
550;BME280;20066;48.764;9.176;2022-10-01T04:31:13;97760.75;;;10.71;68.83
550;BME280;20066;48.764;9.176;2022-10-01T04:34:00;97760.00;;;10.71;68.31
550;BME280;20066;48.764;9.176;2022-10-01T04:36:28;97766.22;;;11.12;67.91
550;BME280;20066;48.764;9.176;2022-10-01T04:38:56;97752.22;;;11.73;65.40
550;BME280;20066;48.764;9.176;2022-10-01T04:41:30;97765.28;;;11.33;66.50
550;BME280;20066;48.764;9.176;2022-10-01T04:43:59;97759.72;;;11.10;66.53
550;BME280;20066;48.764;9.176;2022-10-01T04:46:27;97768.03;;;11.26;66.27
550;BME280;20066;48.764;9.176;2022-10-01T04:48:55;97765.59;;;12.14;63.50
550;BME280;20066;48.764;9.176;2022-10-01T04:51:22;97752.34;;;11.96;63.35
550;BME280;20066;48.764;9.176;2022-10-01T04:53:50;97758.03;;;11.27;65.85
550;BME280;20066;48.764;9.176;2022-10-01T04:56:18;97750.47;;;11.11;66.97
550;BME280;20066;48.764;9.176;2022-10-01T04:58:47;97751.16;;;11.59;65.91
550;BME280;20066;48.764;9.176;2022-10-01T05:01:15;97763.53;;;11.53;65.74
550;BME280;20066;48.764;9.176;2022-10-01T05:03:42;97763.13;;;11.17;66.52
550;BME280;20066;48.764;9.176;2022-10-01T05:06:10;97746.28;;;10.51;68.69
550;BME280;20066;48.764;9.176;2022-10-01T05:08:38;97757.47;;;11.01;67.79
550;BME280;20066;48.764;9.176;2022-10-01T05:11:06;97751.81;;;10.89;67.71
550;BME280;20066;48.764;9.176;2022-10-01T05:13:33;97759.56;;;10.76;68.63
550;BME280;20066;48.764;9.176;2022-10-01T05:16:03;97751.13;;;11.67;65.05
550;BME280;20066;48.764;9.176;2022-10-01T05:18:31;97755.78;;;11.59;64.57
550;BME280;20066;48.764;9.176;2022-10-01T05:21:03;97762.63;;;11.30;66.65
550;BME280;20066;48.764;9.176;2022-10-01T05:23:31;97759.38;;;11.86;63.96
550;BME280;20066;48.764;9.176;2022-10-01T05:25:59;97754.50;;;11.74;64.45
550;BME280;20066;48.764;9.176;2022-10-01T05:28:29;97750.09;;;11.53;64.48
550;BME280;20066;48.764;9.176;2022-10-01T05:30:58;97752.53;;;11.41;64.98
550;BME280;20066;48.764;9.176;2022-10-01T05:33:28;97749.81;;;11.41;65.59
550;BME280;20066;48.764;9.176;2022-10-01T05:35:56;97744.72;;;11.09;66.30
550;BME280;20066;48.764;9.176;2022-10-01T05:38:24;97736.66;;;11.05;66.34
550;BME280;20066;48.764;9.176;2022-10-01T05:40:51;97738.59;;;11.87;64.46
550;BME280;20066;48.764;9.176;2022-10-01T05:43:19;97757.81;;;11.07;65.99
550;BME280;20066;48.764;9.176;2022-10-01T05:45:47;97753.03;;;11.70;64.85
550;BME280;20066;48.764;9.176;2022-10-01T05:48:16;97750.78;;;11.61;65.15
550;BME280;20066;48.764;9.176;2022-10-01T05:50:45;97748.25;;;11.02;66.25
550;BME280;20066;48.764;9.176;2022-10-01T05:53:15;97741.44;;;10.83;67.08
550;BME280;20066;48.764;9.176;2022-10-01T05:55:43;97733.47;;;11.21;66.34
550;BME280;20066;48.764;9.176;2022-10-01T05:58:12;97722.50;;;11.42;65.25
550;BME280;20066;48.764;9.176;2022-10-01T06:00:41;97714.56;;;11.99;63.58
550;BME280;20066;48.764;9.176;2022-10-01T06:03:10;97710.94;;;12.67;61.13
550;BME280;20066;48.764;9.176;2022-10-01T06:05:38;97703.97;;;11.85;63.97
550;BME280;20066;48.764;9.176;2022-10-01T06:08:07;97702.00;;;11.14;66.65
550;BME280;20066;48.764;9.176;2022-10-01T06:10:36;97682.38;;;11.17;66.90
550;BME280;20066;48.764;9.176;2022-10-01T06:13:04;97687.59;;;11.69;65.97
550;BME280;20066;48.764;9.176;2022-10-01T06:15:33;97681.44;;;11.31;67.60
550;BME280;20066;48.764;9.176;2022-10-01T06:18:03;97679.66;;;11.55;66.53
550;BME280;20066;48.764;9.176;2022-10-01T06:20:31;97674.50;;;11.71;67.76
550;BME280;20066;48.764;9.176;2022-10-01T06:22:59;97670.38;;;11.22;69.73
550;BME280;20066;48.764;9.176;2022-10-01T06:25:28;97666.34;;;11.41;69.38
550;BME280;20066;48.764;9.176;2022-10-01T06:27:58;97673.00;;;11.29;69.29
550;BME280;20066;48.764;9.176;2022-10-01T06:30:27;97680.59;;;11.75;69.42
550;BME280;20066;48.764;9.176;2022-10-01T06:32:58;97663.72;;;10.96;72.47
550;BME280;20066;48.764;9.176;2022-10-01T06:35:26;97659.44;;;11.40;71.29
550;BME280;20066;48.764;9.176;2022-10-01T06:37:54;97663.06;;;11.22;72.25
550;BME280;20066;48.764;9.176;2022-10-01T06:40:22;97657.66;;;11.26;70.89
550;BME280;20066;48.764;9.176;2022-10-01T06:42:51;97658.91;;;11.52;70.67
550;BME280;20066;48.764;9.176;2022-10-01T06:45:22;97665.78;;;11.22;71.33
550;BME280;20066;48.764;9.176;2022-10-01T06:47:52;97663.72;;;12.02;69.03
550;BME280;20066;48.764;9.176;2022-10-01T06:50:20;97665.19;;;11.76;68.68
550;BME280;20066;48.764;9.176;2022-10-01T06:52:48;97665.88;;;11.83;69.92
550;BME280;20066;48.764;9.176;2022-10-01T06:55:14;97665.75;;;11.64;70.68
550;BME280;20066;48.764;9.176;2022-10-01T06:57:42;97668.72;;;11.35;71.70
550;BME280;20066;48.764;9.176;2022-10-01T07:00:12;97671.91;;;11.60;70.16
550;BME280;20066;48.764;9.176;2022-10-01T07:02:40;97673.00;;;11.67;69.46
550;BME280;20066;48.764;9.176;2022-10-01T07:05:08;97668.94;;;11.85;68.31
550;BME280;20066;48.764;9.176;2022-10-01T07:07:38;97677.75;;;12.20;68.08
550;BME280;20066;48.764;9.176;2022-10-01T07:10:08;97672.72;;;10.79;71.47
550;BME280;20066;48.764;9.176;2022-10-01T07:12:36;97671.34;;;12.07;68.41
550;BME280;20066;48.764;9.176;2022-10-01T07:15:06;97678.66;;;12.06;68.90
550;BME280;20066;48.764;9.176;2022-10-01T07:17:42;97678.06;;;11.65;70.56
550;BME280;20066;48.764;9.176;2022-10-01T07:20:10;97670.00;;;11.23;71.13
550;BME280;20066;48.764;9.176;2022-10-01T07:22:38;97678.72;;;11.35;72.12
550;BME280;20066;48.764;9.176;2022-10-01T07:25:06;97674.91;;;11.70;70.38
550;BME280;20066;48.764;9.176;2022-10-01T07:27:34;97666.28;;;11.10;72.52
550;BME280;20066;48.764;9.176;2022-10-01T07:30:03;97657.25;;;11.28;73.90
550;BME280;20066;48.764;9.176;2022-10-01T07:32:31;97659.00;;;11.45;73.28
550;BME280;20066;48.764;9.176;2022-10-01T07:35:02;97656.28;;;11.45;71.99
550;BME280;20066;48.764;9.176;2022-10-01T07:37:31;97642.16;;;11.37;72.31
550;BME280;20066;48.764;9.176;2022-10-01T07:39:59;97646.97;;;11.19;73.92
550;BME280;20066;48.764;9.176;2022-10-01T07:42:32;97657.44;;;11.81;70.04
550;BME280;20066;48.764;9.176;2022-10-01T07:45:00;97643.66;;;11.42;72.38
550;BME280;20066;48.764;9.176;2022-10-01T07:47:29;97639.16;;;11.66;70.90
550;BME280;20066;48.764;9.176;2022-10-01T07:49:57;97648.28;;;11.04;72.19
550;BME280;20066;48.764;9.176;2022-10-01T07:52:26;97651.81;;;11.35;71.86
550;BME280;20066;48.764;9.176;2022-10-01T07:54:54;97658.19;;;12.12;69.13
550;BME280;20066;48.764;9.176;2022-10-01T07:57:22;97654.09;;;11.74;70.03
550;BME280;20066;48.764;9.176;2022-10-01T07:59:49;97651.94;;;11.20;71.97
550;BME280;20066;48.764;9.176;2022-10-01T08:02:21;97648.53;;;11.16;72.65
550;BME280;20066;48.764;9.176;2022-10-01T08:04:49;97648.28;;;11.04;73.07
550;BME280;20066;48.764;9.176;2022-10-01T08:07:36;97649.53;;;11.67;71.46
550;BME280;20066;48.764;9.176;2022-10-01T08:10:04;97643.16;;;11.13;73.39
550;BME280;20066;48.764;9.176;2022-10-01T08:12:32;97654.75;;;11.44;73.14
550;BME280;20066;48.764;9.176;2022-10-01T08:15:00;97658.63;;;12.07;70.77
550;BME280;20066;48.764;9.176;2022-10-01T08:17:28;97658.81;;;10.88;74.76
550;BME280;20066;48.764;9.176;2022-10-01T08:19:56;97658.34;;;11.34;73.27
550;BME280;20066;48.764;9.176;2022-10-01T08:22:24;97654.22;;;10.84;75.62
550;BME280;20066;48.764;9.176;2022-10-01T08:24:53;97662.22;;;11.33;74.39
550;BME280;20066;48.764;9.176;2022-10-01T08:27:22;97664.94;;;11.29;75.00
550;BME280;20066;48.764;9.176;2022-10-01T08:29:50;97659.47;;;11.36;74.09
550;BME280;20066;48.764;9.176;2022-10-01T08:32:19;97655.06;;;11.15;76.81
550;BME280;20066;48.764;9.176;2022-10-01T08:34:47;97664.75;;;11.09;76.67
550;BME280;20066;48.764;9.176;2022-10-01T08:37:25;97665.03;;;10.77;77.98
550;BME280;20066;48.764;9.176;2022-10-01T08:39:55;97666.88;;;11.63;76.85
550;BME280;20066;48.764;9.176;2022-10-01T08:42:38;97674.41;;;11.78;75.73
550;BME280;20066;48.764;9.176;2022-10-01T08:45:12;97671.34;;;11.42;76.52
550;BME280;20066;48.764;9.176;2022-10-01T08:47:42;97670.97;;;11.03;80.31
550;BME280;20066;48.764;9.176;2022-10-01T08:50:27;97663.56;;;10.69;79.85
550;BME280;20066;48.764;9.176;2022-10-01T08:53:00;97682.06;;;11.08;79.77
550;BME280;20066;48.764;9.176;2022-10-01T08:55:31;97681.63;;;11.51;78.79
550;BME280;20066;48.764;9.176;2022-10-01T08:58:04;97675.22;;;11.75;78.39
550;BME280;20066;48.764;9.176;2022-10-01T09:00:34;97668.97;;;11.48;77.89
550;BME280;20066;48.764;9.176;2022-10-01T09:03:08;97673.75;;;11.33;78.46
550;BME280;20066;48.764;9.176;2022-10-01T09:05:47;97684.28;;;10.72;80.73
550;BME280;20066;48.764;9.176;2022-10-01T09:08:24;97682.63;;;11.30;79.96
550;BME280;20066;48.764;9.176;2022-10-01T09:11:18;97691.03;;;12.04;76.96
550;BME280;20066;48.764;9.176;2022-10-01T09:14:12;97695.50;;;11.83;78.02
550;BME280;20066;48.764;9.176;2022-10-01T09:16:49;97691.34;;;11.41;79.16
550;BME280;20066;48.764;9.176;2022-10-01T09:19:41;97700.03;;;11.93;78.70
550;BME280;20066;48.764;9.176;2022-10-01T09:22:17;97707.06;;;11.84;77.89
550;BME280;20066;48.764;9.176;2022-10-01T09:24:57;97708.16;;;11.52;78.79
550;BME280;20066;48.764;9.176;2022-10-01T09:27:28;97697.91;;;12.08;78.76
550;BME280;20066;48.764;9.176;2022-10-01T09:30:01;97705.31;;;12.31;77.13
550;BME280;20066;48.764;9.176;2022-10-01T09:32:33;97692.13;;;11.76;80.20
550;BME280;20066;48.764;9.176;2022-10-01T09:35:11;97700.34;;;11.61;81.60
550;BME280;20066;48.764;9.176;2022-10-01T09:37:48;97697.72;;;11.92;79.41
550;BME280;20066;48.764;9.176;2022-10-01T09:40:23;97702.22;;;11.68;81.63
550;BME280;20066;48.764;9.176;2022-10-01T09:42:56;97703.75;;;12.03;79.96
550;BME280;20066;48.764;9.176;2022-10-01T09:45:24;97700.13;;;12.13;79.98
550;BME280;20066;48.764;9.176;2022-10-01T09:47:55;97708.81;;;11.97;81.67
550;BME280;20066;48.764;9.176;2022-10-01T09:50:30;97702.75;;;12.20;80.54
550;BME280;20066;48.764;9.176;2022-10-01T09:53:01;97698.28;;;11.80;81.55
550;BME280;20066;48.764;9.176;2022-10-01T09:55:32;97703.53;;;12.48;79.99
550;BME280;20066;48.764;9.176;2022-10-01T09:58:08;97714.75;;;12.69;78.01
550;BME280;20066;48.764;9.176;2022-10-01T10:00:39;97714.75;;;12.16;81.55
550;BME280;20066;48.764;9.176;2022-10-01T10:03:08;97704.63;;;12.23;81.53
550;BME280;20066;48.764;9.176;2022-10-01T10:05:40;97702.59;;;11.70;83.55
550;BME280;20066;48.764;9.176;2022-10-01T10:08:12;97712.25;;;11.68;82.66
550;BME280;20066;48.764;9.176;2022-10-01T10:10:48;97718.75;;;12.04;83.04
550;BME280;20066;48.764;9.176;2022-10-01T10:13:23;97722.72;;;11.96;83.13
550;BME280;20066;48.764;9.176;2022-10-01T10:15:54;97721.13;;;11.98;83.59
550;BME280;20066;48.764;9.176;2022-10-01T10:18:27;97719.44;;;11.78;83.59
550;BME280;20066;48.764;9.176;2022-10-01T10:20:57;97727.53;;;12.12;82.00
550;BME280;20066;48.764;9.176;2022-10-01T10:23:25;97700.97;;;11.80;82.48
550;BME280;20066;48.764;9.176;2022-10-01T10:25:55;97719.38;;;12.15;82.77
550;BME280;20066;48.764;9.176;2022-10-01T10:28:28;97730.34;;;12.31;82.08
550;BME280;20066;48.764;9.176;2022-10-01T10:31:12;97735.13;;;13.01;79.10
550;BME280;20066;48.764;9.176;2022-10-01T10:33:46;97735.03;;;12.54;81.10
550;BME280;20066;48.764;9.176;2022-10-01T10:36:14;97739.31;;;12.21;82.08
550;BME280;20066;48.764;9.176;2022-10-01T10:38:45;97716.94;;;12.24;82.11
550;BME280;20066;48.764;9.176;2022-10-01T10:41:16;97731.66;;;12.47;81.71
550;BME280;20066;48.764;9.176;2022-10-01T10:43:47;97717.06;;;12.44;81.68
550;BME280;20066;48.764;9.176;2022-10-01T10:46:21;97719.13;;;12.60;81.72
550;BME280;20066;48.764;9.176;2022-10-01T10:48:57;97721.09;;;12.02;83.09
550;BME280;20066;48.764;9.176;2022-10-01T10:51:25;97719.75;;;12.44;82.33
550;BME280;20066;48.764;9.176;2022-10-01T10:53:53;97719.66;;;12.24;82.88
550;BME280;20066;48.764;9.176;2022-10-01T10:56:22;97717.00;;;12.48;82.48
550;BME280;20066;48.764;9.176;2022-10-01T11:01:28;97710.34;;;12.56;80.96
550;BME280;20066;48.764;9.176;2022-10-01T11:06:38;97705.94;;;12.92;79.39
550;BME280;20066;48.764;9.176;2022-10-01T11:09:09;97698.25;;;12.91;79.72
550;BME280;20066;48.764;9.176;2022-10-01T11:11:47;97695.56;;;13.14;78.55
550;BME280;20066;48.764;9.176;2022-10-01T11:14:25;97695.28;;;13.51;76.22
550;BME280;20066;48.764;9.176;2022-10-01T11:17:28;97699.16;;;13.50;77.49
550;BME280;20066;48.764;9.176;2022-10-01T11:20:11;97694.16;;;13.69;76.38
550;BME280;20066;48.764;9.176;2022-10-01T11:22:54;97695.34;;;13.48;77.71
550;BME280;20066;48.764;9.176;2022-10-01T11:25:37;97685.03;;;12.73;80.14
550;BME280;20066;48.764;9.176;2022-10-01T11:28:20;97697.16;;;13.55;76.57
550;BME280;20066;48.764;9.176;2022-10-01T11:30:57;97690.53;;;12.93;79.05
550;BME280;20066;48.764;9.176;2022-10-01T11:33:39;97699.72;;;13.19;78.92
550;BME280;20066;48.764;9.176;2022-10-01T11:36:17;97699.94;;;13.90;75.41
550;BME280;20066;48.764;9.176;2022-10-01T11:38:51;97702.81;;;13.40;77.07
550;BME280;20066;48.764;9.176;2022-10-01T11:41:29;97695.00;;;13.66;75.14
550;BME280;20066;48.764;9.176;2022-10-01T11:44:01;97704.47;;;12.88;78.06
550;BME280;20066;48.764;9.176;2022-10-01T11:46:41;97705.53;;;13.60;76.20
550;BME280;20066;48.764;9.176;2022-10-01T11:49:25;97717.78;;;13.45;76.17
550;BME280;20066;48.764;9.176;2022-10-01T11:52:02;97715.28;;;13.11;77.73
550;BME280;20066;48.764;9.176;2022-10-01T11:54:38;97724.19;;;13.31;78.01
550;BME280;20066;48.764;9.176;2022-10-01T11:57:13;97730.31;;;13.35;75.93
550;BME280;20066;48.764;9.176;2022-10-01T12:00:03;97733.03;;;13.55;76.74
550;BME280;20066;48.764;9.176;2022-10-01T12:02:36;97732.44;;;12.74;78.54
550;BME280;20066;48.764;9.176;2022-10-01T12:05:10;97743.38;;;13.37;76.55
550;BME280;20066;48.764;9.176;2022-10-01T12:07:45;97739.75;;;13.24;77.71
550;BME280;20066;48.764;9.176;2022-10-01T12:10:26;97750.56;;;13.24;77.87
550;BME280;20066;48.764;9.176;2022-10-01T12:13:03;97745.56;;;13.22;77.37
550;BME280;20066;48.764;9.176;2022-10-01T12:15:36;97749.41;;;13.25;77.22
550;BME280;20066;48.764;9.176;2022-10-01T12:18:13;97757.06;;;13.49;77.01
550;BME280;20066;48.764;9.176;2022-10-01T12:20:46;97750.22;;;13.22;77.07
550;BME280;20066;48.764;9.176;2022-10-01T12:23:18;97755.66;;;12.95;78.23
550;BME280;20066;48.764;9.176;2022-10-01T12:25:52;97772.22;;;13.86;74.87
550;BME280;20066;48.764;9.176;2022-10-01T12:28:25;97765.47;;;13.55;75.52
550;BME280;20066;48.764;9.176;2022-10-01T12:31:01;97771.16;;;14.04;73.70
550;BME280;20066;48.764;9.176;2022-10-01T12:33:54;97778.97;;;13.98;73.48
550;BME280;20066;48.764;9.176;2022-10-01T12:36:32;97775.31;;;14.08;73.89
550;BME280;20066;48.764;9.176;2022-10-01T12:39:13;97776.78;;;13.70;74.62
550;BME280;20066;48.764;9.176;2022-10-01T12:44:33;97782.25;;;14.29;72.40
550;BME280;20066;48.764;9.176;2022-10-01T12:47:16;97790.34;;;14.49;70.78
550;BME280;20066;48.764;9.176;2022-10-01T12:49:51;97797.72;;;14.28;72.88
550;BME280;20066;48.764;9.176;2022-10-01T12:52:30;97788.13;;;14.24;72.20
550;BME280;20066;48.764;9.176;2022-10-01T12:55:13;97792.59;;;13.71;75.41
550;BME280;20066;48.764;9.176;2022-10-01T12:57:51;97790.38;;;13.66;75.84
550;BME280;20066;48.764;9.176;2022-10-01T13:00:23;97792.00;;;14.23;73.01
550;BME280;20066;48.764;9.176;2022-10-01T13:03:13;97801.34;;;13.79;75.44
550;BME280;20066;48.764;9.176;2022-10-01T13:05:53;97802.22;;;14.15;73.29
550;BME280;20066;48.764;9.176;2022-10-01T13:08:36;97804.81;;;13.79;75.07
550;BME280;20066;48.764;9.176;2022-10-01T13:11:12;97792.91;;;14.16;73.30
550;BME280;20066;48.764;9.176;2022-10-01T13:13:48;97793.56;;;13.81;74.64
550;BME280;20066;48.764;9.176;2022-10-01T13:16:21;97796.78;;;13.96;75.19
550;BME280;20066;48.764;9.176;2022-10-01T13:18:58;97803.22;;;13.82;74.70
550;BME280;20066;48.764;9.176;2022-10-01T13:21:43;97789.94;;;13.68;75.59
550;BME280;20066;48.764;9.176;2022-10-01T13:24:22;97792.47;;;14.57;72.01
550;BME280;20066;48.764;9.176;2022-10-01T13:26:58;97789.66;;;14.45;72.32
550;BME280;20066;48.764;9.176;2022-10-01T13:29:40;97795.09;;;14.61;72.46
550;BME280;20066;48.764;9.176;2022-10-01T13:32:27;97789.16;;;15.02;70.47
550;BME280;20066;48.764;9.176;2022-10-01T13:34:57;97786.28;;;14.57;71.40
550;BME280;20066;48.764;9.176;2022-10-01T13:37:34;97791.25;;;14.78;70.79
550;BME280;20066;48.764;9.176;2022-10-01T13:40:17;97786.13;;;14.64;71.02
550;BME280;20066;48.764;9.176;2022-10-01T13:42:47;97791.00;;;14.53;71.73
550;BME280;20066;48.764;9.176;2022-10-01T13:45:23;97800.03;;;15.18;68.94
550;BME280;20066;48.764;9.176;2022-10-01T13:48:03;97792.31;;;15.17;68.13
550;BME280;20066;48.764;9.176;2022-10-01T13:50:31;97797.28;;;15.02;69.38
550;BME280;20066;48.764;9.176;2022-10-01T13:53:07;97803.25;;;14.77;69.72
550;BME280;20066;48.764;9.176;2022-10-01T13:55:42;97794.34;;;15.90;65.53
550;BME280;20066;48.764;9.176;2022-10-01T13:58:22;97798.81;;;16.92;62.32